Date,TemperatureHighF,TemperatureAvgF,TemperatureLowF,DewpointHighF,DewpointAvgF,DewpointLowF,HumidityHigh,HumidityAvg,HumidityLow,PressureMaxIn,PressureMinIn,WindSpeedMaxMPH,WindSpeedAvgMPH,GustSpeedMaxMPH,PrecipitationSumIn
2013-1-1,82.2,72.5,68.1,47.0,-92.1,-202.0,29,1,1,30.06,29.96,8,1,13,0.00
2013-1-2,81.1,72.5,66.3,59.0,-46.7,-202.0,48,13,1,30.04,29.94,7,1,14,0.00
2013-1-3,77.2,70.8,66.2,-99.9,-99.9,-202.0,0,0,100,30.09,29.98,5,1,12,0.00
2013-1-4,82.2,73.9,68.4,41.0,-85.7,-202.0,24,2,6,30.15,30.04,5,1,14,0.00
2013-1-5,79.5,73.3,69.6,32.0,-83.8,-202.0,18,1,1,30.17,30.05,8,1,17,0.00
2013-1-6,81.4,73.1,68.1,62.0,-62.2,-202.0,53,7,1,30.11,30.01,11,1,17,0.00
2013-1-7,82.0,73.6,69.8,57.0,-68.7,-202.0,43,6,6,30.09,29.99,13,2,17,0.00
2013-1-8,79.6,71.7,68.0,16.0,-98.7,-202.0,9,0,9,30.12,30.02,14,1,26,0.00
2013-1-9,81.2,73.2,68.6,63.0,-56.0,-202.0,55,11,4,30.16,30.06,7,1,16,0.00
2013-1-10,78.2,70.2,66.6,35.0,-93.5,-202.0,21,1,4,30.15,30.05,7,2,15,0.00
2013-1-11,78.3,70.6,67.0,58.0,-78.2,-202.0,52,5,1,30.07,29.95,11,2,17,0.00
2013-1-12,79.4,70.5,66.6,27.0,-92.5,-202.0,15,0,2,29.98,29.91,5,1,14,0.00
2013-1-13,78.7,71.4,66.4,59.0,-49.4,-202.0,54,11,1,30.02,29.94,9,2,14,0.00
2013-1-14,78.2,70.3,62.0,58.0,-57.0,-202.0,53,11,1,30.04,29.94,11,1,16,0.00
2013-1-15,79.4,70.1,64.1,52.0,-75.6,-202.0,38,3,1,30.02,29.93,9,2,13,0.00
2013-1-16,78.0,69.6,64.9,-4.0,-97.1,-202.0,4,0,1,30.03,29.94,7,1,15,0.00
2013-1-17,82.5,72.3,65.3,64.0,-47.0,-202.0,54,15,4,30.06,29.94,8,1,13,0.00
2013-1-18,81.5,71.5,67.2,51.0,-85.4,-202.0,37,3,1,30.07,29.97,9,1,11,0.00
2013-1-19,79.7,71.4,66.1,50.0,-74.6,-202.0,35,3,2,30.08,29.96,4,1,10,0.00
2013-1-20,83.1,73.4,67.3,63.0,-51.6,-202.0,53,11,3,30.05,29.94,7,1,13,0.00
2013-1-21,81.6,71.9,65.4,46.0,-87.0,-202.0,29,1,1,30.02,29.93,5,1,13,0.00
2013-1-22,81.7,73.8,69.1,48.0,-84.7,-202.0,32,2,5,30.05,29.96,7,2,16,0.00
2013-1-23,83.2,74.0,69.3,57.0,-79.5,-202.0,42,3,1,30.09,29.99,7,1,18,0.00
2013-1-24,82.3,74.1,69.2,59.0,-68.4,-202.0,47,7,2,30.09,29.97,7,1,11,0.00
2013-1-25,84.1,72.3,66.5,61.0,-88.8,-202.0,45,2,4,30.08,29.98,5,1,12,0.00
2013-1-26,80.8,73.2,69.4,30.0,-92.8,-202.0,16,1,2,30.08,30.00,7,1,13,0.00
2013-1-27,83.6,73.8,67.9,60.0,-73.7,-202.0,45,5,1,30.12,30.02,5,1,12,0.00
2013-1-28,80.2,71.5,68.6,34.0,-94.3,-202.0,19,1,1,30.15,30.05,11,-9,17,0.00
2013-1-29,80.3,70.2,66.7,37.0,-89.3,-202.0,21,1,9,30.11,30.00,6,-10,11,0.00
2013-1-30,82.8,72.5,66.9,57.0,-74.1,-202.0,44,5,2,30.08,29.99,8,1,16,0.00
2013-1-31,80.7,73.4,69.1,29.0,-93.6,-202.0,15,0,1,30.07,29.97,8,1,14,0.00
2013-2-1,74.6,70.7,68.2,-99.9,-99.9,-202.0,0,0,100,30.07,29.97,5,0,11,0.02
2013-2-2,81.4,71.8,64.1,63.0,-45.6,-202.0,54,16,7,30.05,29.94,7,1,10,0.14
2013-2-3,81.9,72.6,66.3,64.0,-43.4,-202.0,55,16,1,30.00,29.88,7,2,16,0.11
2013-2-4,80.5,70.1,63.6,61.0,-28.2,-202.0,51,18,3,30.00,29.89,5,1,10,0.26
2013-2-5,81.6,72.1,63.5,63.0,-27.6,-202.0,54,19,2,30.04,29.94,6,1,10,0.26
2013-2-6,82.1,72.7,67.7,63.0,-60.1,-202.0,53,10,1,30.02,29.92,4,1,11,0.01
2013-2-7,84.5,72.4,66.2,63.0,-62.5,-202.0,51,10,20,30.00,29.88,10,1,15,0.01
2013-2-8,81.4,73.8,69.7,47.0,-82.5,-202.0,30,2,2,30.00,29.90,7,1,15,0.03
2013-2-9,84.1,72.5,68.0,62.0,-54.4,-202.0,52,10,7,30.02,29.92,5,-20,11,0.03
2013-2-10,82.2,70.5,66.7,59.0,-54.1,-202.0,49,11,5,30.06,29.96,16,-30,16,0.01
2013-2-11,79.8,70.8,68.1,-3.0,-98.9,-202.0,4,0,4,30.09,30.01,9,1,19,0.56
2013-2-12,81.2,70.2,65.2,62.0,-36.3,-202.0,52,12,4,30.09,30.00,7,-20,13,0.57
2013-2-13,81.9,71.7,63.5,62.0,-44.6,-202.0,53,16,9,30.06,29.96,5,1,11,0.00
2013-2-14,81.8,73.0,66.7,49.0,-70.2,-202.0,32,3,2,30.07,29.98,5,1,15,0.00
2013-2-15,82.3,74.4,69.1,52.0,-68.4,-202.0,36,5,1,30.07,29.96,13,2,18,0.01
2013-2-16,81.9,74.0,69.6,61.0,-59.0,-202.0,50,9,1,30.02,29.92,16,2,19,0.00
2013-2-17,83.6,74.0,70.2,58.0,-69.0,-202.0,42,5,1,30.06,29.94,6,1,13,0.02
2013-2-18,80.5,72.5,67.4,48.0,-85.8,-202.0,33,2,5,30.10,29.99,11,1,21,0.02
2013-2-19,82.7,72.5,68.1,62.0,-70.0,-202.0,50,6,4,30.09,29.98,9,1,15,0.03
2013-2-20,81.2,70.7,66.8,42.0,-85.4,-202.0,25,1,4,30.05,29.91,8,-20,14,0.06
2013-2-21,82.4,74.5,69.7,50.0,-68.6,-202.0,32,5,6,30.03,29.91,8,2,17,0.00
2013-2-22,84.9,73.3,66.4,62.0,-65.8,-202.0,47,6,1,30.05,29.95,8,1,15,0.00
2013-2-23,83.0,73.5,68.0,61.0,-55.7,-202.0,49,10,6,30.04,29.93,6,1,14,0.00
2013-2-24,81.8,72.5,65.8,50.0,-72.8,-202.0,34,5,6,30.03,29.91,8,1,16,0.00
2013-2-25,82.4,72.2,67.5,59.0,-59.5,-202.0,45,8,6,29.99,29.88,6,-20,14,0.00
2013-2-26,85.1,74.8,68.7,60.0,-56.2,-202.0,45,11,15,30.03,29.93,8,2,12,0.00
2013-2-27,83.6,73.6,70.7,60.0,-61.5,-202.0,45,8,4,30.03,29.92,9,-19,22,0.00
2013-2-28,84.5,74.7,68.8,61.0,-51.2,-202.0,46,12,7,30.00,29.88,10,2,17,0.00
2013-3-1,85.9,74.7,67.7,62.0,-48.6,-202.0,44,11,3,29.96,29.83,9,2,12,0.00
2013-3-2,83.3,73.2,65.7,59.0,-44.4,-202.0,44,13,3,29.95,29.84,5,1,12,0.00
2013-3-3,85.8,74.2,68.6,59.0,-63.7,-202.0,42,7,1,29.98,29.86,10,-18,15,0.00
2013-3-4,88.6,75.0,68.1,64.0,-74.5,-202.0,44,5,1,30.02,29.91,6,2,15,0.52
2013-3-5,72.5,68.7,68.2,-99.9,-99.9,-202.0,0,0,100,30.07,29.97,7,-19,13,0.22
2013-3-6,80.6,72.8,67.4,34.0,-87.5,-202.0,19,1,3,30.06,29.94,6,2,12,0.22
2013-3-7,84.2,73.7,68.5,48.0,-84.8,-202.0,28,1,1,30.03,29.92,5,1,12,0.40
2013-3-8,76.5,71.2,66.7,-99.9,-99.9,-202.0,0,0,100,30.03,29.94,11,3,14,0.04
2013-3-9,75.2,66.6,64.9,-99.9,-99.9,-202.0,0,0,100,30.02,29.93,8,-23,11,0.01
2013-3-10,80.3,71.7,67.0,53.0,-57.7,-202.0,40,9,1,30.00,29.90,13,3,17,0.01
2013-3-11,79.9,70.2,65.1,56.0,-30.4,-202.0,45,15,1,29.99,29.89,13,-19,16,0.00
2013-3-12,79.4,72.2,66.0,57.0,-34.0,-202.0,47,18,1,30.04,29.94,11,1,14,0.00
2013-3-13,81.0,73.1,67.4,59.0,13.3,-99.9,50,30,2,30.02,29.91,7,-10,13,0.00
2013-3-14,81.7,72.1,65.9,58.0,-27.8,-202.0,51,18,2,29.99,29.86,7,1,10,0.00
2013-3-15,84.8,74.4,65.6,61.0,10.1,-202.0,52,29,6,30.00,29.88,11,2,13,0.00
2013-3-16,81.6,71.5,64.0,58.0,-55.4,-202.0,47,11,4,30.03,29.93,7,1,13,0.03
2013-3-17,83.2,72.3,66.8,51.0,-66.7,-202.0,35,5,2,30.08,29.97,9,2,15,0.02
2013-3-18,83.5,70.4,67.0,54.0,-80.5,-202.0,36,3,1,30.08,29.97,8,-10,21,0.01
2013-3-19,83.4,73.7,67.7,45.0,-74.2,-202.0,27,3,1,30.02,29.88,14,2,15,0.01
2013-3-20,84.7,76.0,69.2,51.0,-59.7,-202.0,33,7,1,29.95,29.84,10,2,18,0.00
2013-3-21,86.8,75.2,72.0,50.0,-75.6,-202.0,28,3,1,29.94,29.83,9,-19,19,0.00
2013-3-22,87.0,77.2,70.9,39.0,-78.9,-202.0,18,2,2,30.01,29.89,8,2,17,0.00
2013-3-23,85.7,76.8,72.1,-12.0,-97.4,-202.0,2,0,1,30.03,29.91,7,1,13,0.00
2013-3-24,86.3,77.2,71.5,40.0,-68.7,-202.0,20,3,4,30.00,29.86,9,2,14,0.00
2013-3-25,85.1,76.5,71.7,39.0,-80.6,-202.0,20,2,2,29.98,29.84,10,3,14,0.00
2013-3-26,87.0,77.4,71.3,51.0,-60.1,-202.0,31,6,1,30.00,29.89,14,2,17,0.02
2013-3-27,90.8,77.7,69.3,61.0,-56.2,-202.0,41,9,2,30.01,29.89,8,2,13,0.00
2013-3-28,87.8,75.2,70.1,52.0,-67.6,-202.0,31,5,1,30.00,29.90,7,-21,10,0.04
2013-3-29,77.4,71.4,68.1,-99.9,-99.9,-202.0,0,0,100,30.10,29.95,11,2,16,0.22
2013-3-30,76.9,71.7,68.0,-99.9,-99.9,-202.0,0,0,100,30.11,30.01,8,1,13,0.38
2013-3-31,75.1,71.2,69.5,-99.9,-99.9,-202.0,0,0,100,30.10,30.02,7,1,15,0.97
2013-4-1,82.8,75.1,71.2,-99.9,-99.9,-202.0,0,0,100,30.09,29.98,12,3,18,0.11
2013-4-2,82.1,75.7,72.1,-99.9,-99.9,-202.0,0,0,100,30.04,29.95,12,3,17,0.02
2013-4-3,85.4,77.0,72.5,46.0,-74.0,-202.0,26,3,9,30.05,29.93,11,2,14,0.01
2013-4-4,84.4,76.6,71.4,45.0,-66.7,-202.0,27,4,1,30.06,29.95,11,3,17,0.02
2013-4-5,79.4,73.7,70.6,-99.9,-99.9,-202.0,0,0,100,30.05,29.93,10,2,14,0.02
2013-4-6,84.7,76.9,71.6,-99.9,-99.9,-202.0,0,0,100,30.02,29.91,14,2,22,0.01
2013-4-7,84.6,77.3,71.5,24.0,-95.1,-202.0,11,0,1,30.02,29.93,9,2,13,0.01
2013-4-8,85.2,78.0,73.3,38.0,-74.0,-202.0,19,2,1,30.03,29.92,10,3,18,0.00
2013-4-9,85.5,76.7,72.4,38.0,-85.5,-202.0,19,2,6,30.04,29.91,11,3,21,0.00
2013-4-10,84.8,74.4,71.1,42.0,-71.0,-202.0,22,3,2,30.01,29.91,13,-20,17,0.00
2013-4-11,83.9,75.6,69.1,51.0,-49.9,-202.0,32,8,1,30.01,29.90,13,2,15,0.00
2013-4-12,84.3,75.3,68.3,42.0,-81.7,-202.0,23,2,1,30.00,29.90,10,2,15,0.00
2013-4-13,84.2,76.2,71.5,-27.0,-98.1,-202.0,1,0,1,29.98,29.90,11,2,17,0.36
2013-4-14,83.3,76.4,73.0,-15.0,-97.3,-202.0,2,0,1,30.00,29.91,14,3,18,0.03
2013-4-15,83.2,75.8,72.4,-6.0,-97.1,-202.0,3,0,1,30.03,29.94,10,3,16,0.03
2013-4-16,84.6,73.2,69.4,-99.9,-99.9,-202.0,0,0,100,30.02,29.92,12,-9,14,0.20
2013-4-17,82.5,74.3,68.2,-99.9,-99.9,-202.0,0,0,100,29.99,29.89,9,2,19,0.01
2013-4-18,82.3,75.0,70.5,8.0,-96.6,-202.0,6,0,4,30.02,29.92,11,2,18,0.00
2013-4-19,81.0,73.7,70.3,-99.9,-99.9,-202.0,0,0,100,30.06,29.96,9,2,19,0.04
2013-4-20,78.5,73.3,70.4,-99.9,-99.9,-202.0,0,0,100,30.05,29.96,11,2,14,0.00
2013-4-21,80.6,73.3,68.5,3.0,-96.2,-202.0,5,0,1,30.04,29.94,10,1,15,0.02
2013-4-22,83.7,73.5,65.0,53.0,-53.4,-202.0,36,9,8,30.00,29.90,9,2,16,0.00
2013-4-23,82.9,73.0,67.7,29.0,-74.0,-202.0,14,2,1,29.98,29.88,11,-20,18,0.00
2013-4-24,77.7,70.6,69.0,-99.9,-99.9,-202.0,0,0,100,29.99,29.91,8,-20,12,0.82
2013-4-25,86.1,74.2,67.7,-99.9,-99.9,-202.0,0,0,100,30.01,29.91,12,2,16,0.00
2013-4-26,84.5,74.9,68.8,18.0,-91.5,-202.0,9,0,1,30.00,29.92,14,3,19,0.00
2013-4-27,79.1,73.0,69.2,-99.9,-99.9,-202.0,0,0,100,29.98,29.88,5,1,12,0.37
2013-4-28,84.5,74.7,69.6,-99.9,-99.9,-202.0,0,0,100,29.97,29.88,5,1,11,0.02
2013-4-29,83.8,73.3,69.0,70.0,-54.0,-202.0,84,23,84,29.97,29.89,7,-10,12,0.00
2013-4-30,82.7,75.0,69.8,78.0,70.0,65.0,84,84,84,29.98,29.91,7,2,13,0.00
2013-5-1,83.9,76.4,71.9,71.0,-39.6,-99.9,84,29,2,29.97,29.88,9,2,16,0.00
2013-5-2,85.9,76.4,72.3,-99.9,-99.9,-202.0,0,0,100,29.92,29.82,5,1,9,0.00
2013-5-3,91.8,78.7,71.5,47.0,-90.9,-202.0,21,1,1,29.88,29.78,9,1,14,0.00
2013-5-4,89.4,79.7,71.7,-99.9,-99.9,-202.0,0,0,100,29.84,29.73,12,2,20,0.00
2013-5-5,90.3,78.4,72.9,-99.9,-99.9,-202.0,0,0,100,29.91,29.76,11,1,14,0.01
2013-5-6,90.0,76.8,72.8,-99.9,-99.9,-202.0,0,0,100,29.99,29.87,9,1,13,0.02
2013-5-7,86.8,76.4,72.4,-99.9,-99.9,-202.0,0,0,100,30.06,29.91,7,1,14,0.00
2013-5-8,82.4,75.7,72.7,-99.9,-99.9,-202.0,0,0,100,30.09,29.99,7,1,14,0.00
2013-5-9,81.6,74.1,73.2,-99.9,-99.9,-202.0,0,0,100,30.10,30.00,9,-20,16,0.02
2013-5-10,80.1,74.6,69.0,-99.9,-99.9,-202.0,0,0,100,30.08,29.91,12,2,24,0.00
2013-5-11,86.5,75.1,68.7,74.0,-60.4,-202.0,86,19,81,30.02,29.90,9,2,12,0.22
2013-5-12,85.2,76.2,72.8,74.0,71.5,69.0,94,85,68,29.98,29.89,5,1,10,0.12
2013-5-13,87.1,77.9,71.1,77.0,72.6,70.0,98,85,64,30.00,29.92,8,1,13,0.01
2013-5-14,81.4,74.8,70.9,75.0,69.3,-99.9,95,87,75,30.01,29.91,17,-8,26,0.87
2013-5-15,84.6,75.6,73.5,75.0,70.7,-99.9,95,87,70,29.99,29.91,8,-11,13,0.00
2013-5-16,84.7,77.1,71.6,74.0,71.5,68.0,97,83,64,30.00,29.91,8,1,11,0.00
2013-5-17,86.0,76.9,71.2,74.0,67.7,-99.9,97,80,60,30.04,29.94,9,-9,14,0.00
2013-5-18,87.0,77.5,70.2,72.0,70.1,68.0,93,79,59,30.03,29.95,9,1,15,0.00
2013-5-19,85.2,77.8,71.5,74.0,70.9,69.0,94,80,62,30.01,29.93,12,2,13,0.00
2013-5-20,85.3,77.5,72.2,73.0,70.7,67.0,94,80,57,30.00,29.92,8,1,16,0.00
2013-5-21,82.0,74.9,71.7,76.0,71.5,69.0,95,89,72,29.99,29.91,7,1,16,0.24
2013-5-22,81.8,71.2,70.3,74.0,65.9,-99.9,98,90,77,30.01,29.91,10,-31,19,1.11
2013-5-23,83.7,77.0,72.1,74.0,70.9,69.0,94,82,63,30.02,29.95,7,2,17,0.01
2013-5-24,83.1,76.2,71.9,75.0,72.4,71.0,96,88,70,30.03,29.93,8,1,21,0.08
2013-5-25,82.4,76.9,73.7,74.0,72.7,70.0,95,87,69,30.02,29.94,8,1,14,0.00
2013-5-26,85.8,78.0,73.3,75.0,73.1,72.0,95,85,68,30.03,29.95,6,1,14,0.00
2013-5-27,85.4,73.8,71.8,75.0,66.0,-99.9,96,84,68,30.05,29.95,9,-40,16,0.50
2013-5-28,84.3,75.6,71.6,76.0,69.7,-99.9,98,86,72,30.02,0.00,11,-19,15,0.14
2013-5-29,84.5,78.6,73.3,76.0,72.7,71.0,94,82,67,30.03,29.94,12,2,17,0.00
2013-5-30,84.5,76.8,73.0,76.0,69.5,-99.9,95,82,71,30.04,29.95,10,-19,17,0.00
2013-5-31,82.2,76.4,74.5,76.0,73.6,72.0,96,91,78,30.05,29.96,7,1,12,0.18
2013-6-1,84.0,77.8,72.5,75.0,72.9,71.0,96,85,70,30.04,29.96,9,2,16,0.00
2013-6-2,82.6,77.4,73.0,75.0,72.8,70.0,94,86,69,30.03,29.96,11,2,20,0.38
2013-6-3,85.0,76.1,73.8,76.0,70.1,-99.9,95,86,70,30.02,29.94,9,-20,15,0.14
2013-6-4,80.9,76.5,74.2,75.0,73.3,67.0,97,90,77,30.05,29.93,10,3,23,0.47
2013-6-5,84.1,78.9,75.4,77.0,74.3,72.0,96,86,72,30.01,29.90,8,2,18,0.05
2013-6-6,85.5,78.4,73.7,74.0,71.0,66.0,93,79,58,30.01,29.92,9,2,15,0.00
2013-6-7,84.6,77.0,71.7,74.0,71.1,68.0,94,82,60,30.01,29.93,8,1,16,0.09
2013-6-8,86.8,77.6,72.7,76.0,72.4,70.0,96,85,58,30.01,29.92,6,1,9,0.13
2013-6-9,87.0,79.4,74.8,75.0,73.2,70.0,94,82,63,30.03,29.96,7,2,15,0.01
2013-6-10,85.0,77.7,74.4,76.0,73.8,73.0,96,88,68,30.03,29.95,7,1,17,0.13
2013-6-11,84.3,78.4,73.9,76.0,73.4,71.0,95,85,66,30.04,29.96,9,2,14,0.00
2013-6-12,82.7,77.2,72.9,79.0,74.5,72.0,98,91,80,30.06,29.98,8,2,24,1.81
2013-6-13,86.0,79.3,75.2,78.0,74.8,73.0,95,86,69,30.03,29.95,7,2,14,0.12
2013-6-14,84.1,78.7,74.3,78.0,74.8,73.0,98,88,73,29.99,29.92,9,2,17,1.45
2013-6-15,83.8,76.9,75.1,79.0,71.8,-99.9,96,89,80,30.03,29.94,10,-20,19,0.72
2013-6-16,86.0,79.8,75.7,77.0,74.5,73.0,95,84,67,30.03,29.94,10,2,14,0.00
2013-6-17,83.6,78.5,75.8,76.0,73.9,73.0,92,85,70,30.03,29.98,7,2,14,0.00
2013-6-18,86.4,79.4,73.0,77.0,73.1,71.0,95,81,64,30.03,29.94,11,2,18,0.00
2013-6-19,81.3,74.3,70.9,76.0,71.7,70.0,96,91,80,30.01,29.94,9,2,17,0.69
2013-6-20,84.7,78.2,73.6,76.0,72.3,70.0,94,82,64,30.02,29.95,12,2,15,0.01
2013-6-21,86.1,78.1,72.3,73.0,70.8,68.0,95,79,57,30.03,29.96,9,1,14,0.00
2013-6-22,82.7,75.6,71.4,74.0,71.5,70.0,96,87,72,30.02,29.95,10,1,13,0.12
2013-6-23,80.8,75.5,72.1,76.0,73.1,71.0,96,92,80,30.03,29.96,6,1,12,0.60
2013-6-24,84.3,76.8,72.6,78.0,74.0,71.0,98,91,75,30.04,29.98,9,1,18,0.21
2013-6-25,88.1,76.6,71.7,76.0,73.3,70.0,98,90,62,30.01,29.95,8,1,15,1.17
2013-6-26,82.9,75.1,71.9,76.0,73.0,69.0,98,93,78,30.00,29.93,9,2,17,0.04
2013-6-27,82.5,75.7,72.8,77.0,73.2,70.0,98,92,78,30.00,29.93,10,2,21,0.93
2013-6-28,75.4,74.5,74.0,74.0,73.2,73.0,96,96,95,30.00,29.96,2,1,5,0.01